createdAt,value
2018-03-29T00:00:17.991Z,0.00
2018-03-29T00:01:17.973Z,0.00
2018-03-29T00:02:17.960Z,0.00
2018-03-29T00:03:17.962Z,0.00
2018-03-29T00:04:17.935Z,0.00
2018-03-29T00:05:17.916Z,0.00
2018-03-29T00:06:17.912Z,0.00
2018-03-29T00:07:17.892Z,0.00
2018-03-29T00:08:17.879Z,0.00
2018-03-29T00:09:18.121Z,0.00
2018-03-29T00:10:17.852Z,0.00
2018-03-29T00:11:17.844Z,0.00
2018-03-29T00:12:17.829Z,0.00
2018-03-29T00:13:17.814Z,0.00
2018-03-29T00:14:17.800Z,0.00
2018-03-29T00:15:17.802Z,0.00
2018-03-29T00:16:17.773Z,0.00
2018-03-29T00:17:17.760Z,0.00
2018-03-29T00:18:17.747Z,0.00
2018-03-29T00:19:17.734Z,0.00
2018-03-29T00:20:17.741Z,0.00
2018-03-29T00:21:17.709Z,0.00
2018-03-29T00:22:17.695Z,0.00
2018-03-29T00:23:17.680Z,0.00
2018-03-29T00:24:17.670Z,0.00
2018-03-29T00:25:17.694Z,0.00
2018-03-29T00:26:17.657Z,0.00
2018-03-29T00:27:17.629Z,0.00
2018-03-29T00:28:17.614Z,0.00
2018-03-29T00:29:17.602Z,0.00
2018-03-29T00:30:17.587Z,0.00
2018-03-29T00:31:17.573Z,0.00
2018-03-29T00:32:17.575Z,0.00
2018-03-29T00:33:17.551Z,0.00
2018-03-29T00:34:17.535Z,0.00
2018-03-29T00:35:17.521Z,0.00
2018-03-29T00:36:17.509Z,0.00
2018-03-29T00:37:17.529Z,0.00
2018-03-29T00:38:17.480Z,0.00
2018-03-29T00:39:17.468Z,0.00
2018-03-29T00:40:17.454Z,0.00
2018-03-29T00:41:17.447Z,0.00
2018-03-29T00:42:17.433Z,0.00
2018-03-29T00:43:17.683Z,0.00
2018-03-29T00:44:17.410Z,0.00
2018-03-29T00:45:17.420Z,0.00
2018-03-29T00:46:17.375Z,0.00
2018-03-29T00:47:17.361Z,0.00
2018-03-29T00:48:17.354Z,0.00
2018-03-29T00:49:17.353Z,0.00
2018-03-29T00:50:17.325Z,0.00
2018-03-29T00:51:17.309Z,0.00
2018-03-29T00:52:17.296Z,0.00
2018-03-29T00:53:17.284Z,0.00
2018-03-29T00:54:17.269Z,0.00
2018-03-29T00:55:17.266Z,0.00
2018-03-29T00:56:17.242Z,0.00
2018-03-29T00:57:17.229Z,0.00
2018-03-29T00:58:17.215Z,0.00
2018-03-29T00:59:17.202Z,0.00
2018-03-29T01:00:17.208Z,0.00
2018-03-29T01:01:17.176Z,0.00
2018-03-29T01:02:17.161Z,0.00
2018-03-29T01:03:17.156Z,0.00
2018-03-29T01:04:17.136Z,0.00
2018-03-29T01:05:17.127Z,0.00
2018-03-29T01:06:17.125Z,0.00
2018-03-29T01:07:17.097Z,0.00
2018-03-29T01:08:17.083Z,0.00
2018-03-29T01:09:17.068Z,0.00
2018-03-29T01:10:17.054Z,0.00
2018-03-29T01:11:17.044Z,0.00
2018-03-29T01:12:17.044Z,0.00
2018-03-29T01:13:17.014Z,0.00
2018-03-29T01:14:17.000Z,0.00
2018-03-29T01:15:16.987Z,0.00
2018-03-29T01:16:16.976Z,0.00
2018-03-29T01:17:16.980Z,0.00
2018-03-29T01:18:16.947Z,0.00
2018-03-29T01:19:16.934Z,0.00
2018-03-29T01:20:16.925Z,0.00
2018-03-29T01:21:16.909Z,0.00
2018-03-29T01:22:16.897Z,0.00
2018-03-29T01:23:16.898Z,0.00
2018-03-29T01:24:16.868Z,0.00
2018-03-29T01:25:16.855Z,0.00
2018-03-29T01:26:16.841Z,0.00
2018-03-29T01:27:16.827Z,0.00
2018-03-29T01:28:16.815Z,0.00
2018-03-29T01:29:16.813Z,0.00
2018-03-29T01:30:16.787Z,0.00
2018-03-29T01:31:16.773Z,0.00
2018-03-29T01:32:16.761Z,0.00
2018-03-29T01:33:16.749Z,0.00
2018-03-29T01:34:16.746Z,0.00
2018-03-29T01:35:16.723Z,0.00
2018-03-29T01:36:16.709Z,0.00
2018-03-29T01:37:16.693Z,0.00
2018-03-29T01:38:16.681Z,0.00
2018-03-29T01:39:16.683Z,0.00
2018-03-29T01:40:16.655Z,0.00
2018-03-29T01:41:16.646Z,0.00
2018-03-29T01:42:16.628Z,0.00
2018-03-29T01:43:16.614Z,0.00
2018-03-29T01:44:16.601Z,0.00
2018-03-29T01:45:16.608Z,0.00
2018-03-29T01:46:16.573Z,0.00
2018-03-29T01:47:16.561Z,0.00
2018-03-29T01:48:16.552Z,0.00
2018-03-29T01:49:16.537Z,0.00
2018-03-29T01:50:16.519Z,0.00
2018-03-29T01:51:16.516Z,0.00
2018-03-29T01:52:16.494Z,0.00
2018-03-29T01:53:16.480Z,0.00
2018-03-29T01:54:16.464Z,0.00
2018-03-29T01:55:16.462Z,0.00
2018-03-29T01:56:16.451Z,0.00
2018-03-29T01:57:16.425Z,0.00
2018-03-29T01:58:16.411Z,0.00
2018-03-29T01:59:16.398Z,0.00
2018-03-29T02:00:16.386Z,0.00
2018-03-29T02:01:16.389Z,0.00
2018-03-29T02:02:16.358Z,0.00
2018-03-29T02:03:16.343Z,0.00
2018-03-29T02:04:16.332Z,0.00
2018-03-29T02:05:16.319Z,0.00
2018-03-29T02:06:16.311Z,0.00
2018-03-29T02:07:16.570Z,0.00
2018-03-29T02:08:16.279Z,0.00
2018-03-29T02:09:16.265Z,0.00
2018-03-29T02:10:16.252Z,0.00
2018-03-29T02:11:16.238Z,0.00
2018-03-29T02:12:16.225Z,0.00
2018-03-29T02:13:16.224Z,0.00
2018-03-29T02:14:16.197Z,0.00
2018-03-29T02:15:16.185Z,0.00
2018-03-29T02:16:16.172Z,0.00
2018-03-29T02:17:16.159Z,0.00
2018-03-29T02:18:45.824Z,0.00
2018-03-29T02:19:16.134Z,0.00
2018-03-29T02:20:16.118Z,0.00
2018-03-29T02:21:16.104Z,0.00
2018-03-29T02:22:16.090Z,0.00
2018-03-29T02:23:16.088Z,0.00
2018-03-29T02:24:16.077Z,0.00
2018-03-29T02:25:16.052Z,0.00
2018-03-29T02:26:16.042Z,0.00
2018-03-29T02:27:16.022Z,0.00
2018-03-29T02:28:16.011Z,0.00
2018-03-29T02:29:15.996Z,0.00
2018-03-29T02:30:15.994Z,0.00
2018-03-29T02:31:15.975Z,0.00
2018-03-29T02:32:15.958Z,0.00
2018-03-29T02:33:15.943Z,0.00
2018-03-29T02:34:15.929Z,0.00
2018-03-29T02:35:15.933Z,0.00
2018-03-29T02:36:15.903Z,0.00
2018-03-29T02:37:15.889Z,0.00
2018-03-29T02:38:15.878Z,0.00
2018-03-29T02:39:15.865Z,0.00
2018-03-29T02:40:15.850Z,0.00
2018-03-29T02:41:15.848Z,0.00
2018-03-29T02:42:15.825Z,0.00
2018-03-29T02:43:15.810Z,0.00
2018-03-29T02:44:15.798Z,0.00
2018-03-29T02:45:15.783Z,0.00
2018-03-29T02:46:15.783Z,0.00
2018-03-29T02:47:15.755Z,0.00
2018-03-29T02:48:15.743Z,0.00
2018-03-29T02:49:15.729Z,0.00
2018-03-29T02:50:15.715Z,0.00
2018-03-29T02:51:15.721Z,0.00
2018-03-29T02:52:15.689Z,0.00
2018-03-29T02:53:15.675Z,0.00
2018-03-29T02:54:15.666Z,0.00
2018-03-29T02:55:15.647Z,0.00
2018-03-29T02:56:15.634Z,0.00
2018-03-29T02:57:15.632Z,0.00
2018-03-29T02:58:15.609Z,0.00
2018-03-29T02:59:15.594Z,0.00
2018-03-29T03:00:15.580Z,0.00
2018-03-29T03:01:15.566Z,0.00
2018-03-29T03:02:15.805Z,0.00
2018-03-29T03:03:15.539Z,0.00
2018-03-29T03:04:15.525Z,0.00
2018-03-29T03:05:15.513Z,0.00
2018-03-29T03:06:15.500Z,0.00
2018-03-29T03:07:15.501Z,0.00
2018-03-29T03:08:15.484Z,0.00
2018-03-29T03:09:15.464Z,0.00
2018-03-29T03:10:15.446Z,0.00
2018-03-29T03:11:15.435Z,0.00
2018-03-29T03:12:15.422Z,0.00
2018-03-29T03:13:15.422Z,0.00
2018-03-29T03:14:15.390Z,0.00
2018-03-29T03:15:15.378Z,0.00
2018-03-29T03:16:15.367Z,0.00
2018-03-29T03:17:15.352Z,0.00
2018-03-29T03:18:15.337Z,0.00
2018-03-29T03:19:15.336Z,0.00
2018-03-29T03:20:15.315Z,0.00
2018-03-29T03:21:15.298Z,0.00
2018-03-29T03:22:15.284Z,0.00
2018-03-29T03:23:15.271Z,0.00
2018-03-29T03:24:15.272Z,0.00
2018-03-29T03:25:15.249Z,0.00
2018-03-29T03:26:15.234Z,0.00
2018-03-29T03:27:15.222Z,0.00
2018-03-29T03:28:15.204Z,0.00
2018-03-29T03:29:15.224Z,0.00
2018-03-29T03:30:15.179Z,0.00
2018-03-29T03:31:15.165Z,0.00
2018-03-29T03:32:15.149Z,0.00
2018-03-29T03:33:15.138Z,0.00
2018-03-29T03:34:15.122Z,0.00
2018-03-29T03:35:15.123Z,0.00
2018-03-29T03:36:15.095Z,0.00
2018-03-29T03:37:15.083Z,0.00
2018-03-29T03:38:15.067Z,0.00
2018-03-29T03:39:15.059Z,0.00
2018-03-29T03:40:15.078Z,0.00
2018-03-29T03:41:15.029Z,0.00
2018-03-29T03:42:15.016Z,0.00
2018-03-29T03:43:14.998Z,0.00
2018-03-29T03:44:14.987Z,0.00
2018-03-29T03:45:14.976Z,0.00
2018-03-29T03:46:14.975Z,0.00
2018-03-29T03:47:14.949Z,0.00
2018-03-29T03:48:14.935Z,0.00
2018-03-29T03:49:14.927Z,0.00
2018-03-29T03:50:14.908Z,0.00
2018-03-29T03:51:14.905Z,0.00
2018-03-29T03:52:14.880Z,0.00
2018-03-29T03:53:14.872Z,0.00
2018-03-29T03:54:14.855Z,0.00
2018-03-29T03:55:14.841Z,0.00
2018-03-29T03:56:14.847Z,0.00
2018-03-29T03:57:14.814Z,0.00
2018-03-29T03:58:14.801Z,0.00
2018-03-29T03:59:14.786Z,0.00
2018-03-29T04:00:14.773Z,0.00
2018-03-29T04:01:14.761Z,0.00
2018-03-29T04:02:14.776Z,0.00
2018-03-29T04:03:14.737Z,0.00
2018-03-29T04:04:14.722Z,0.00
2018-03-29T04:05:14.707Z,0.00
2018-03-29T04:06:14.693Z,0.00
2018-03-29T04:07:14.695Z,0.00
2018-03-29T04:08:14.666Z,0.00
2018-03-29T04:09:14.652Z,0.00
2018-03-29T04:10:14.637Z,0.00
2018-03-29T04:11:14.625Z,0.00
2018-03-29T04:12:14.614Z,0.00
2018-03-29T04:13:14.608Z,0.00
2018-03-29T04:14:14.585Z,0.00
2018-03-29T04:15:14.569Z,0.00
2018-03-29T04:16:14.558Z,0.00
2018-03-29T04:17:14.546Z,0.00
2018-03-29T04:18:14.546Z,0.00
2018-03-29T04:19:14.517Z,0.00
2018-03-29T04:20:14.505Z,0.00
2018-03-29T04:21:14.490Z,0.00
2018-03-29T04:22:14.477Z,0.00
2018-03-29T04:23:14.467Z,0.00
2018-03-29T04:24:14.474Z,0.00
2018-03-29T04:25:14.443Z,0.00
2018-03-29T04:26:14.423Z,0.00
2018-03-29T04:27:14.410Z,0.00
2018-03-29T04:28:14.396Z,0.00
2018-03-29T04:29:14.384Z,0.00
2018-03-29T04:30:14.384Z,0.00
2018-03-29T04:31:14.358Z,0.00
2018-03-29T04:32:14.343Z,0.00
2018-03-29T04:33:14.328Z,0.00
2018-03-29T04:34:14.315Z,0.00
2018-03-29T04:35:14.364Z,0.00
2018-03-29T04:36:14.288Z,0.00
2018-03-29T04:37:14.276Z,0.00
2018-03-29T04:38:14.260Z,0.00
2018-03-29T04:39:14.248Z,0.00
2018-03-29T04:40:14.257Z,0.00
2018-03-29T04:41:14.220Z,0.00
2018-03-29T04:42:14.207Z,0.00
2018-03-29T04:43:14.194Z,0.00
2018-03-29T04:44:14.184Z,0.00
2018-03-29T04:45:14.167Z,0.00
2018-03-29T04:46:14.166Z,0.00
2018-03-29T04:47:14.146Z,0.00
2018-03-29T04:48:14.130Z,0.00
2018-03-29T04:49:14.133Z,0.00
2018-03-29T04:50:14.099Z,0.00
2018-03-29T04:51:14.102Z,0.00
2018-03-29T04:52:14.074Z,0.00
2018-03-29T04:53:14.060Z,0.00
2018-03-29T04:54:14.045Z,0.00
2018-03-29T04:55:14.032Z,0.00
2018-03-29T04:56:14.019Z,0.00
2018-03-29T04:57:14.019Z,0.00
2018-03-29T04:58:13.991Z,0.00
2018-03-29T04:59:13.980Z,0.00
2018-03-29T05:00:13.963Z,0.00
2018-03-29T05:01:13.952Z,0.00
2018-03-29T05:02:13.954Z,0.00
2018-03-29T05:03:13.924Z,0.00
2018-03-29T05:04:13.910Z,0.00
2018-03-29T05:05:13.898Z,0.00
2018-03-29T05:06:13.883Z,0.00
2018-03-29T05:07:13.870Z,0.00
2018-03-29T05:08:13.867Z,0.00
2018-03-29T05:09:13.844Z,0.00
2018-03-29T05:10:13.828Z,0.00
2018-03-29T05:11:13.817Z,0.00
2018-03-29T05:12:13.802Z,0.00
2018-03-29T05:13:13.848Z,0.00
2018-03-29T05:14:13.778Z,0.00
2018-03-29T05:15:13.762Z,0.00
2018-03-29T05:16:13.749Z,0.00
2018-03-29T05:17:13.734Z,0.00
2018-03-29T05:18:13.735Z,0.00
2018-03-29T05:19:13.711Z,0.00
2018-03-29T05:20:13.694Z,0.00
2018-03-29T05:21:13.682Z,0.00
2018-03-29T05:22:13.668Z,0.00
2018-03-29T05:23:13.702Z,4.00
2018-03-29T05:24:13.652Z,4.00
2018-03-29T05:25:13.629Z,4.00
2018-03-29T05:26:13.696Z,4.00
2018-03-29T05:27:13.601Z,4.00
2018-03-29T05:28:13.586Z,4.00
2018-03-29T05:29:14.146Z,4.00
2018-03-29T05:30:13.557Z,4.00
2018-03-29T05:31:13.548Z,4.00
2018-03-29T05:32:13.626Z,4.00
2018-03-29T05:33:13.519Z,4.00
2018-03-29T05:34:13.504Z,4.00
2018-03-29T05:35:13.503Z,4.00
2018-03-29T05:36:13.482Z,4.00
2018-03-29T05:37:13.465Z,4.00
2018-03-29T05:38:13.493Z,4.00
2018-03-29T05:39:13.438Z,4.00
2018-03-29T05:40:13.436Z,4.00
2018-03-29T05:41:13.415Z,4.00
2018-03-29T05:42:13.398Z,4.00
2018-03-29T05:43:13.386Z,4.00
2018-03-29T05:44:13.372Z,48.00
2018-03-29T05:45:13.376Z,48.00
2018-03-29T05:46:13.349Z,48.00
2018-03-29T05:47:13.331Z,52.00
2018-03-29T05:48:13.318Z,52.00
2018-03-29T05:49:13.306Z,52.00
2018-03-29T05:50:13.293Z,44.00
2018-03-29T05:51:13.293Z,60.00
2018-03-29T05:52:13.265Z,60.00
2018-03-29T05:53:13.256Z,64.00
2018-03-29T05:54:13.238Z,64.00
2018-03-29T05:55:13.227Z,52.00
2018-03-29T05:56:13.247Z,48.00
2018-03-29T05:57:13.200Z,44.00
2018-03-29T05:58:13.186Z,44.00
2018-03-29T05:59:13.176Z,44.00
2018-03-29T06:00:13.160Z,60.00
2018-03-29T06:01:13.148Z,64.00
2018-03-29T06:02:13.143Z,36.00
2018-03-29T06:03:13.128Z,40.00
2018-03-29T06:04:13.106Z,44.00
2018-03-29T06:05:13.094Z,48.00
2018-03-29T06:06:13.079Z,56.00
2018-03-29T06:07:13.074Z,60.00
2018-03-29T06:08:13.052Z,72.00
2018-03-29T06:09:13.041Z,84.00
2018-03-29T06:10:13.026Z,92.00
2018-03-29T06:11:13.015Z,108.00
2018-03-29T06:12:13.015Z,124.00
2018-03-29T06:13:12.985Z,136.00
2018-03-29T06:14:12.971Z,160.00
2018-03-29T06:15:12.960Z,160.00
2018-03-29T06:16:12.945Z,160.00
2018-03-29T06:17:12.939Z,156.00
2018-03-29T06:18:12.930Z,144.00
2018-03-29T06:19:12.907Z,140.00
2018-03-29T06:20:12.895Z,136.00
2018-03-29T06:21:12.882Z,128.00
2018-03-29T06:22:12.867Z,116.00
2018-03-29T06:23:12.909Z,100.00
2018-03-29T06:24:12.836Z,92.00
2018-03-29T06:25:12.825Z,88.00
2018-03-29T06:26:12.807Z,88.00
2018-03-29T06:27:12.793Z,92.00
2018-03-29T06:28:12.781Z,100.00
2018-03-29T06:29:12.782Z,96.00
2018-03-29T06:30:12.805Z,92.00
2018-03-29T06:31:12.740Z,92.00
2018-03-29T06:32:12.728Z,92.00
2018-03-29T06:33:12.716Z,100.00
2018-03-29T06:34:12.709Z,100.00
2018-03-29T06:35:12.685Z,264.00
2018-03-29T06:36:12.671Z,260.00
2018-03-29T06:37:12.658Z,260.00
2018-03-29T06:38:12.643Z,272.00
2018-03-29T06:39:12.649Z,288.00
2018-03-29T06:40:12.617Z,304.00
2018-03-29T06:41:12.611Z,320.00
2018-03-29T06:42:12.589Z,324.00
2018-03-29T06:43:12.577Z,324.00
2018-03-29T06:44:12.565Z,324.00
2018-03-29T06:45:12.561Z,324.00
2018-03-29T06:46:12.532Z,324.00
2018-03-29T06:47:12.520Z,328.00
2018-03-29T06:48:12.508Z,328.00
2018-03-29T06:49:12.491Z,312.00
2018-03-29T06:50:12.490Z,304.00
2018-03-29T06:51:12.464Z,296.00
2018-03-29T06:52:12.448Z,292.00
2018-03-29T06:53:12.440Z,292.00
2018-03-29T06:54:12.417Z,292.00
2018-03-29T06:55:12.405Z,288.00
2018-03-29T06:56:12.411Z,284.00
2018-03-29T06:57:12.382Z,280.00
2018-03-29T06:58:12.365Z,284.00
2018-03-29T06:59:12.354Z,296.00
2018-03-29T07:00:12.337Z,320.00
2018-03-29T07:01:12.345Z,332.00
2018-03-29T07:02:12.309Z,336.00
2018-03-29T07:03:12.297Z,324.00
2018-03-29T07:04:12.284Z,316.00
2018-03-29T07:05:12.267Z,308.00
2018-03-29T07:06:12.255Z,304.00
2018-03-29T07:07:12.248Z,308.00
2018-03-29T07:08:12.226Z,308.00
2018-03-29T07:09:12.212Z,308.00
2018-03-29T07:10:12.197Z,312.00
2018-03-29T07:11:12.189Z,316.00
2018-03-29T07:12:12.184Z,324.00
2018-03-29T07:13:12.159Z,332.00
2018-03-29T07:14:12.142Z,332.00
2018-03-29T07:15:12.131Z,328.00
2018-03-29T07:16:12.117Z,316.00
2018-03-29T07:17:12.118Z,308.00
2018-03-29T07:18:12.090Z,312.00
2018-03-29T07:19:12.077Z,312.00
2018-03-29T07:20:12.061Z,324.00
2018-03-29T07:21:12.050Z,332.00
2018-03-29T07:22:12.035Z,340.00
2018-03-29T07:23:12.035Z,352.00
2018-03-29T07:24:12.007Z,364.00
2018-03-29T07:25:11.994Z,368.00
2018-03-29T07:26:11.983Z,368.00
2018-03-29T07:27:11.968Z,364.00
2018-03-29T07:28:11.954Z,352.00
2018-03-29T07:29:11.952Z,344.00
2018-03-29T07:30:11.927Z,332.00
2018-03-29T07:31:11.915Z,320.00
2018-03-29T07:32:11.899Z,312.00
2018-03-29T07:33:11.888Z,304.00
2018-03-29T07:34:11.880Z,344.00
2018-03-29T07:35:11.858Z,300.00
2018-03-29T07:36:11.848Z,388.00
2018-03-29T07:37:11.832Z,320.00
2018-03-29T07:38:11.816Z,320.00
2018-03-29T07:39:11.816Z,316.00
2018-03-29T07:40:11.791Z,316.00
2018-03-29T07:41:11.778Z,308.00
2018-03-29T07:42:11.761Z,312.00
2018-03-29T07:43:11.753Z,308.00
2018-03-29T07:44:11.760Z,312.00
2018-03-29T07:45:11.741Z,336.00
2018-03-29T07:46:11.710Z,332.00
2018-03-29T07:47:11.715Z,332.00
2018-03-29T07:48:11.682Z,332.00
2018-03-29T07:49:11.667Z,332.00
2018-03-29T07:50:11.654Z,324.00
2018-03-29T07:51:11.652Z,316.00
2018-03-29T07:52:11.627Z,312.00
2018-03-29T07:53:11.640Z,304.00
2018-03-29T07:54:11.600Z,304.00
2018-03-29T07:55:11.584Z,296.00
2018-03-29T07:56:11.583Z,296.00
2018-03-29T07:57:11.559Z,280.00
2018-03-29T07:58:11.544Z,168.00
2018-03-29T07:59:11.528Z,200.00
2018-03-29T08:00:11.519Z,204.00
2018-03-29T08:01:11.514Z,200.00
2018-03-29T08:02:11.491Z,196.00
2018-03-29T08:03:11.478Z,188.00
2018-03-29T08:04:11.462Z,196.00
2018-03-29T08:05:11.452Z,188.00
2018-03-29T08:06:11.470Z,200.00
2018-03-29T08:07:11.419Z,204.00
2018-03-29T08:08:11.407Z,192.00
2018-03-29T08:09:11.392Z,192.00
2018-03-29T08:10:11.379Z,188.00
2018-03-29T08:11:11.366Z,184.00
2018-03-29T08:12:11.371Z,176.00
2018-03-29T08:13:11.337Z,176.00
2018-03-29T08:14:11.324Z,160.00
2018-03-29T08:15:11.309Z,164.00
2018-03-29T08:16:11.297Z,168.00
2018-03-29T08:17:11.281Z,160.00
2018-03-29T08:18:11.281Z,160.00
2018-03-29T08:19:11.254Z,172.00
2018-03-29T08:20:11.244Z,168.00
2018-03-29T08:21:11.230Z,164.00
2018-03-29T08:22:11.216Z,176.00
2018-03-29T08:23:11.212Z,188.00
2018-03-29T08:24:11.185Z,196.00
2018-03-29T08:25:11.174Z,196.00
2018-03-29T08:26:11.158Z,200.00
2018-03-29T08:27:11.144Z,224.00
2018-03-29T08:28:11.141Z,244.00
2018-03-29T08:29:11.118Z,260.00
2018-03-29T08:30:11.103Z,280.00
2018-03-29T08:31:11.090Z,292.00
2018-03-29T08:32:11.076Z,296.00
2018-03-29T08:33:11.079Z,288.00
2018-03-29T08:34:11.048Z,296.00
2018-03-29T08:35:11.035Z,292.00
2018-03-29T08:36:11.021Z,280.00
2018-03-29T08:37:11.014Z,284.00
2018-03-29T08:38:10.994Z,292.00
2018-03-29T08:39:11.249Z,280.00
2018-03-29T08:40:10.968Z,268.00
2018-03-29T08:41:10.953Z,288.00
2018-03-29T08:42:10.939Z,276.00
2018-03-29T08:43:10.925Z,288.00
2018-03-29T08:44:10.913Z,296.00
2018-03-29T08:45:10.908Z,292.00
2018-03-29T08:46:10.884Z,296.00
2018-03-29T08:47:10.870Z,244.00
2018-03-29T08:48:10.856Z,256.00
2018-03-29T08:49:10.842Z,260.00
2018-03-29T08:50:10.843Z,264.00
2018-03-29T08:51:10.816Z,284.00
2018-03-29T08:52:10.803Z,308.00
2018-03-29T08:53:10.788Z,308.00
2018-03-29T08:54:10.774Z,304.00
2018-03-29T08:55:10.768Z,304.00
2018-03-29T08:56:10.758Z,292.00
2018-03-29T08:57:10.733Z,272.00
2018-03-29T08:58:10.723Z,248.00
2018-03-29T08:59:10.705Z,232.00
2018-03-29T09:00:10.693Z,240.00
2018-03-29T09:01:10.698Z,236.00
2018-03-29T09:02:10.666Z,224.00
2018-03-29T09:03:10.655Z,232.00
2018-03-29T09:04:10.639Z,224.00
2018-03-29T09:05:10.624Z,228.00
2018-03-29T09:06:10.610Z,212.00
2018-03-29T09:07:10.611Z,212.00
2018-03-29T09:08:10.583Z,220.00
2018-03-29T09:09:10.570Z,232.00
2018-03-29T09:10:10.555Z,232.00
2018-03-29T09:11:10.542Z,244.00
2018-03-29T09:12:10.546Z,244.00
2018-03-29T09:13:10.519Z,204.00
2018-03-29T09:14:10.503Z,228.00
2018-03-29T09:15:10.491Z,236.00
2018-03-29T09:16:10.476Z,220.00
2018-03-29T09:17:10.467Z,244.00
2018-03-29T09:18:10.459Z,280.00
2018-03-29T09:19:10.434Z,308.00
2018-03-29T09:20:10.421Z,304.00
2018-03-29T09:21:10.408Z,320.00
2018-03-29T09:22:10.395Z,296.00
2018-03-29T09:23:10.397Z,292.00
2018-03-29T09:24:10.368Z,296.00
2018-03-29T09:25:10.356Z,276.00
2018-03-29T09:26:10.341Z,284.00
2018-03-29T09:27:10.331Z,284.00
2018-03-29T09:28:10.328Z,292.00
2018-03-29T09:29:10.298Z,300.00
2018-03-29T09:30:10.285Z,292.00
2018-03-29T09:31:10.276Z,304.00
2018-03-29T09:32:10.262Z,296.00
2018-03-29T09:33:10.247Z,288.00
2018-03-29T09:34:10.246Z,288.00
2018-03-29T09:35:10.223Z,284.00
2018-03-29T09:36:10.207Z,268.00
2018-03-29T09:37:10.194Z,252.00
2018-03-29T09:38:10.177Z,292.00
2018-03-29T09:39:10.180Z,300.00
2018-03-29T09:40:10.156Z,308.00
2018-03-29T09:41:10.141Z,264.00
2018-03-29T09:42:10.125Z,264.00
2018-03-29T09:43:10.120Z,280.00
2018-03-29T09:44:10.105Z,404.00
2018-03-29T09:45:10.100Z,408.00
2018-03-29T09:46:10.078Z,396.00
2018-03-29T09:47:10.061Z,408.00
2018-03-29T09:48:10.049Z,408.00
2018-03-29T09:49:10.037Z,452.00
2018-03-29T09:50:10.033Z,480.00
2018-03-29T09:51:10.006Z,440.00
2018-03-29T09:52:09.992Z,384.00
2018-03-29T09:53:09.980Z,356.00
2018-03-29T09:54:09.969Z,336.00
2018-03-29T09:55:10.214Z,312.00
2018-03-29T09:56:09.941Z,328.00
2018-03-29T09:57:09.927Z,328.00
2018-03-29T09:58:09.917Z,392.00
2018-03-29T09:59:09.902Z,444.00
2018-03-29T10:00:09.888Z,500.00
2018-03-29T10:01:09.883Z,512.00
2018-03-29T10:02:09.859Z,524.00
2018-03-29T10:03:09.846Z,556.00
2018-03-29T10:04:09.832Z,652.00
2018-03-29T10:05:09.817Z,824.00
2018-03-29T10:06:09.804Z,876.00
2018-03-29T10:07:09.803Z,824.00
2018-03-29T10:08:09.776Z,900.00
2018-03-29T10:09:09.764Z,816.00
2018-03-29T10:10:09.749Z,820.00
2018-03-29T10:11:09.740Z,812.00
2018-03-29T10:12:09.791Z,1060.00
2018-03-29T10:13:09.711Z,940.00
2018-03-29T10:14:09.695Z,908.00
2018-03-29T10:15:09.681Z,884.00
2018-03-29T10:16:09.668Z,808.00
2018-03-29T10:17:09.656Z,696.00
2018-03-29T10:18:09.661Z,672.00
2018-03-29T10:19:09.627Z,752.00
2018-03-29T10:20:09.614Z,792.00
2018-03-29T10:21:09.600Z,696.00
2018-03-29T10:22:09.587Z,700.00
2018-03-29T10:23:09.576Z,776.00
2018-03-29T10:24:09.590Z,720.00
2018-03-29T10:25:09.547Z,680.00
2018-03-29T10:26:09.535Z,656.00
2018-03-29T10:27:09.520Z,696.00
2018-03-29T10:28:09.509Z,784.00
2018-03-29T10:29:09.507Z,780.00
2018-03-29T10:30:09.500Z,800.00
2018-03-29T10:31:09.464Z,868.00
2018-03-29T10:32:09.451Z,864.00
2018-03-29T10:33:09.437Z,792.00
2018-03-29T10:34:09.423Z,744.00
2018-03-29T10:35:09.426Z,676.00
2018-03-29T10:36:09.397Z,696.00
2018-03-29T10:37:09.383Z,664.00
2018-03-29T10:38:09.375Z,652.00
2018-03-29T10:39:09.358Z,648.00
2018-03-29T10:40:09.345Z,656.00
2018-03-29T10:41:09.398Z,724.00
2018-03-29T10:42:09.316Z,760.00
2018-03-29T10:43:09.305Z,772.00
2018-03-29T10:44:09.287Z,764.00
2018-03-29T10:45:09.274Z,768.00
2018-03-29T10:46:09.528Z,900.00
2018-03-29T10:47:09.247Z,908.00
2018-03-29T10:48:09.234Z,824.00
2018-03-29T10:49:09.219Z,700.00
2018-03-29T10:50:09.206Z,624.00
2018-03-29T10:51:09.197Z,740.00
2018-03-29T10:52:09.196Z,680.00
2018-03-29T10:53:09.164Z,584.00
2018-03-29T10:54:09.151Z,588.00
2018-03-29T10:55:09.139Z,580.00
2018-03-29T10:56:09.125Z,544.00
2018-03-29T10:57:09.127Z,808.00
2018-03-29T10:58:09.111Z,780.00
2018-03-29T10:59:09.084Z,944.00
2018-03-29T11:00:09.075Z,828.00
2018-03-29T11:01:09.058Z,728.00
2018-03-29T11:02:09.050Z,792.00
2018-03-29T11:03:09.053Z,936.00
2018-03-29T11:04:09.017Z,924.00
2018-03-29T11:05:09.003Z,868.00
2018-03-29T11:06:08.989Z,696.00
2018-03-29T11:07:08.976Z,744.00
2018-03-29T11:08:08.963Z,684.00
2018-03-29T11:09:08.963Z,636.00
2018-03-29T11:10:08.940Z,636.00
2018-03-29T11:11:08.922Z,928.00
2018-03-29T11:12:08.909Z,1028.00
2018-03-29T11:13:08.898Z,1052.00
2018-03-29T11:14:08.885Z,968.00
2018-03-29T11:15:08.886Z,956.00
2018-03-29T11:16:08.856Z,1028.00
2018-03-29T11:17:08.844Z,1076.00
2018-03-29T11:18:08.837Z,1032.00
2018-03-29T11:19:08.822Z,880.00
2018-03-29T11:20:08.796Z,784.00
2018-03-29T11:21:08.800Z,804.00
2018-03-29T11:22:08.774Z,836.00
2018-03-29T11:23:08.762Z,824.00
2018-03-29T11:24:08.747Z,896.00
2018-03-29T11:25:08.733Z,972.00
2018-03-29T11:26:08.736Z,968.00
2018-03-29T11:27:08.710Z,896.00
2018-03-29T11:28:08.693Z,828.00
2018-03-29T11:29:08.682Z,792.00
2018-03-29T11:30:08.667Z,764.00
2018-03-29T11:31:08.654Z,680.00
2018-03-29T11:32:08.666Z,620.00
2018-03-29T11:33:08.625Z,552.00
2018-03-29T11:34:08.615Z,448.00
2018-03-29T11:35:08.598Z,340.00
2018-03-29T11:36:08.588Z,316.00
2018-03-29T11:37:08.572Z,400.00
2018-03-29T11:38:08.615Z,476.00
2018-03-29T11:39:08.546Z,528.00
2018-03-29T11:40:08.530Z,584.00
2018-03-29T11:41:08.518Z,664.00
2018-03-29T11:42:08.505Z,708.00
2018-03-29T11:43:08.506Z,912.00
2018-03-29T11:44:08.477Z,952.00
2018-03-29T11:45:08.466Z,812.00
2018-03-29T11:46:08.449Z,608.00
2018-03-29T11:47:08.436Z,588.00
2018-03-29T11:48:08.425Z,640.00
2018-03-29T11:49:08.422Z,808.00
2018-03-29T11:50:08.396Z,728.00
2018-03-29T11:51:08.381Z,896.00
2018-03-29T11:52:08.368Z,900.00
2018-03-29T11:53:08.354Z,896.00
2018-03-29T11:54:08.341Z,980.00
2018-03-29T11:55:08.341Z,1124.00
2018-03-29T11:56:08.315Z,1052.00
2018-03-29T11:57:08.300Z,948.00
2018-03-29T11:58:08.287Z,908.00
2018-03-29T11:59:08.274Z,904.00
2018-03-29T12:00:08.279Z,856.00
2018-03-29T12:01:08.247Z,712.00
2018-03-29T12:02:08.234Z,516.00
2018-03-29T12:03:08.221Z,452.00
2018-03-29T12:04:08.207Z,408.00
2018-03-29T12:05:08.257Z,368.00
2018-03-29T12:06:08.193Z,344.00
2018-03-29T12:07:08.164Z,332.00
2018-03-29T12:08:08.160Z,340.00
2018-03-29T12:09:08.137Z,348.00
2018-03-29T12:10:08.129Z,356.00
2018-03-29T12:11:08.111Z,372.00
2018-03-29T12:12:08.110Z,396.00
2018-03-29T12:13:08.084Z,412.00
2018-03-29T12:14:08.068Z,416.00
2018-03-29T12:15:08.058Z,400.00
2018-03-29T12:16:08.045Z,396.00
2018-03-29T12:17:08.047Z,364.00
2018-03-29T12:18:08.016Z,352.00
2018-03-29T12:19:08.004Z,356.00
2018-03-29T12:20:07.989Z,384.00
2018-03-29T12:21:07.975Z,496.00
2018-03-29T12:22:07.964Z,520.00
2018-03-29T12:23:08.198Z,480.00
2018-03-29T12:24:07.937Z,504.00
2018-03-29T12:25:07.920Z,544.00
2018-03-29T12:26:07.918Z,564.00
2018-03-29T12:27:07.894Z,472.00
2018-03-29T12:28:07.879Z,572.00
2018-03-29T12:29:07.875Z,544.00
2018-03-29T12:30:07.861Z,524.00
2018-03-29T12:31:07.838Z,512.00
2018-03-29T12:32:07.824Z,372.00
2018-03-29T12:33:07.810Z,488.00
2018-03-29T12:34:07.796Z,552.00
2018-03-29T12:35:07.802Z,560.00
2018-03-29T12:36:07.770Z,636.00
2018-03-29T12:37:07.757Z,680.00
2018-03-29T12:38:07.741Z,564.00
2018-03-29T12:39:07.732Z,544.00
2018-03-29T12:40:07.718Z,524.00
2018-03-29T12:41:07.717Z,588.00
2018-03-29T12:42:07.686Z,596.00
2018-03-29T12:43:07.674Z,568.00
2018-03-29T12:44:07.660Z,568.00
2018-03-29T12:45:07.704Z,560.00
2018-03-29T12:46:07.633Z,564.00
2018-03-29T12:47:07.628Z,560.00
2018-03-29T12:48:07.605Z,424.00
2018-03-29T12:49:07.591Z,528.00
2018-03-29T12:50:07.576Z,536.00